sensor_id;sensor_type;location;lat;lon;timestamp;P1;durP1;ratioP1;P2;durP2;ratioP2
14396;SDS011;50653;47.810;13.022;2023-09-12T00:01:41;2.87;;;2.77;;
14396;SDS011;50653;47.810;13.022;2023-09-12T00:04:06;2.87;;;2.70;;
14396;SDS011;50653;47.810;13.022;2023-09-12T00:06:32;2.83;;;2.73;;
14396;SDS011;50653;47.810;13.022;2023-09-12T00:08:58;3.00;;;2.80;;
14396;SDS011;50653;47.810;13.022;2023-09-12T00:11:24;3.10;;;3.00;;
14396;SDS011;50653;47.810;13.022;2023-09-12T00:13:50;3.37;;;3.17;;
14396;SDS011;50653;47.810;13.022;2023-09-12T00:16:16;3.00;;;2.90;;
14396;SDS011;50653;47.810;13.022;2023-09-12T00:18:42;3.43;;;3.33;;
14396;SDS011;50653;47.810;13.022;2023-09-12T00:21:08;2.70;;;2.60;;
14396;SDS011;50653;47.810;13.022;2023-09-12T00:23:33;3.40;;;3.30;;
14396;SDS011;50653;47.810;13.022;2023-09-12T00:25:59;2.70;;;2.60;;
14396;SDS011;50653;47.810;13.022;2023-09-12T00:28:25;3.00;;;2.90;;
14396;SDS011;50653;47.810;13.022;2023-09-12T00:30:51;2.60;;;2.50;;
14396;SDS011;50653;47.810;13.022;2023-09-12T00:33:17;3.50;;;3.37;;
14396;SDS011;50653;47.810;13.022;2023-09-12T00:35:43;3.07;;;2.93;;
14396;SDS011;50653;47.810;13.022;2023-09-12T00:38:09;3.00;;;2.90;;
14396;SDS011;50653;47.810;13.022;2023-09-12T00:40:35;2.57;;;2.47;;
14396;SDS011;50653;47.810;13.022;2023-09-12T00:43:02;2.90;;;2.80;;
14396;SDS011;50653;47.810;13.022;2023-09-12T00:45:29;2.67;;;2.53;;
14396;SDS011;50653;47.810;13.022;2023-09-12T00:47:54;2.23;;;2.13;;
14396;SDS011;50653;47.810;13.022;2023-09-12T00:50:23;3.00;;;2.90;;
14396;SDS011;50653;47.810;13.022;2023-09-12T00:52:50;2.30;;;2.20;;
14396;SDS011;50653;47.810;13.022;2023-09-12T00:55:16;2.67;;;2.47;;
14396;SDS011;50653;47.810;13.022;2023-09-12T00:57:42;4.57;;;1.93;;
14396;SDS011;50653;47.810;13.022;2023-09-12T01:00:10;2.07;;;1.97;;
14396;SDS011;50653;47.810;13.022;2023-09-12T01:02:41;2.03;;;1.93;;
14396;SDS011;50653;47.810;13.022;2023-09-12T01:05:09;2.60;;;2.50;;
14396;SDS011;50653;47.810;13.022;2023-09-12T01:07:36;2.63;;;2.53;;
14396;SDS011;50653;47.810;13.022;2023-09-12T01:10:03;2.20;;;2.10;;
14396;SDS011;50653;47.810;13.022;2023-09-12T01:12:29;2.30;;;2.20;;
14396;SDS011;50653;47.810;13.022;2023-09-12T01:14:55;1.90;;;1.80;;
14396;SDS011;50653;47.810;13.022;2023-09-12T01:17:21;2.60;;;2.50;;
14396;SDS011;50653;47.810;13.022;2023-09-12T01:19:48;2.43;;;2.33;;
14396;SDS011;50653;47.810;13.022;2023-09-12T01:28:11;2.20;;;2.10;;
14396;SDS011;50653;47.810;13.022;2023-09-12T01:30:39;2.93;;;2.83;;
14396;SDS011;50653;47.810;13.022;2023-09-12T01:33:10;3.03;;;2.93;;
14396;SDS011;50653;47.810;13.022;2023-09-12T01:35:36;2.00;;;1.90;;
14396;SDS011;50653;47.810;13.022;2023-09-12T01:38:01;2.40;;;2.30;;
14396;SDS011;50653;47.810;13.022;2023-09-12T01:40:49;2.60;;;2.50;;
14396;SDS011;50653;47.810;13.022;2023-09-12T01:43:18;2.30;;;2.20;;
14396;SDS011;50653;47.810;13.022;2023-09-12T01:45:46;2.53;;;2.43;;
14396;SDS011;50653;47.810;13.022;2023-09-12T01:48:18;2.93;;;2.83;;
14396;SDS011;50653;47.810;13.022;2023-09-12T01:50:45;2.77;;;2.67;;
14396;SDS011;50653;47.810;13.022;2023-09-12T01:53:13;2.07;;;1.97;;
14396;SDS011;50653;47.810;13.022;2023-09-12T01:55:40;2.83;;;2.73;;
14396;SDS011;50653;47.810;13.022;2023-09-12T01:58:08;2.60;;;2.50;;
14396;SDS011;50653;47.810;13.022;2023-09-12T02:00:34;2.40;;;2.30;;
14396;SDS011;50653;47.810;13.022;2023-09-12T02:03:01;2.97;;;2.87;;
14396;SDS011;50653;47.810;13.022;2023-09-12T02:05:29;2.87;;;2.77;;
14396;SDS011;50653;47.810;13.022;2023-09-12T02:07:55;2.63;;;2.53;;
14396;SDS011;50653;47.810;13.022;2023-09-12T02:10:20;3.30;;;3.20;;
14396;SDS011;50653;47.810;13.022;2023-09-12T02:12:46;3.70;;;3.50;;
14396;SDS011;50653;47.810;13.022;2023-09-12T02:15:12;3.97;;;3.77;;
14396;SDS011;50653;47.810;13.022;2023-09-12T02:17:38;3.70;;;3.50;;
14396;SDS011;50653;47.810;13.022;2023-09-12T02:20:05;2.90;;;2.80;;
14396;SDS011;50653;47.810;13.022;2023-09-12T02:22:32;2.93;;;2.83;;
14396;SDS011;50653;47.810;13.022;2023-09-12T02:24:58;3.20;;;3.00;;
14396;SDS011;50653;47.810;13.022;2023-09-12T02:27:23;3.10;;;3.00;;
14396;SDS011;50653;47.810;13.022;2023-09-12T02:29:49;2.63;;;2.53;;
14396;SDS011;50653;47.810;13.022;2023-09-12T02:32:15;3.07;;;2.97;;
14396;SDS011;50653;47.810;13.022;2023-09-12T02:34:40;2.43;;;2.33;;
14396;SDS011;50653;47.810;13.022;2023-09-12T02:37:07;2.00;;;1.90;;
14396;SDS011;50653;47.810;13.022;2023-09-12T02:39:32;2.80;;;2.70;;
14396;SDS011;50653;47.810;13.022;2023-09-12T02:41:58;3.13;;;3.03;;
14396;SDS011;50653;47.810;13.022;2023-09-12T02:44:24;3.47;;;3.33;;
14396;SDS011;50653;47.810;13.022;2023-09-12T02:46:50;2.80;;;2.70;;
14396;SDS011;50653;47.810;13.022;2023-09-12T02:49:16;2.60;;;2.50;;
14396;SDS011;50653;47.810;13.022;2023-09-12T02:51:41;2.70;;;2.60;;
14396;SDS011;50653;47.810;13.022;2023-09-12T02:54:07;2.43;;;2.33;;
14396;SDS011;50653;47.810;13.022;2023-09-12T02:56:33;3.00;;;2.80;;
14396;SDS011;50653;47.810;13.022;2023-09-12T02:58:59;2.73;;;2.63;;
14396;SDS011;50653;47.810;13.022;2023-09-12T03:01:25;3.23;;;3.13;;
14396;SDS011;50653;47.810;13.022;2023-09-12T03:03:53;3.63;;;3.50;;
14396;SDS011;50653;47.810;13.022;2023-09-12T03:06:19;3.23;;;3.03;;
14396;SDS011;50653;47.810;13.022;2023-09-12T03:08:45;2.70;;;2.60;;
14396;SDS011;50653;47.810;13.022;2023-09-12T03:11:12;3.27;;;3.07;;
14396;SDS011;50653;47.810;13.022;2023-09-12T03:13:39;2.73;;;2.63;;
14396;SDS011;50653;47.810;13.022;2023-09-12T03:16:09;2.30;;;2.20;;
14396;SDS011;50653;47.810;13.022;2023-09-12T03:18:38;2.40;;;2.30;;
14396;SDS011;50653;47.810;13.022;2023-09-12T03:21:04;3.27;;;3.17;;
14396;SDS011;50653;47.810;13.022;2023-09-12T03:23:30;2.67;;;2.57;;
14396;SDS011;50653;47.810;13.022;2023-09-12T03:26:01;2.50;;;2.40;;
14396;SDS011;50653;47.810;13.022;2023-09-12T03:28:28;2.37;;;2.27;;
14396;SDS011;50653;47.810;13.022;2023-09-12T03:31:02;2.60;;;2.50;;
14396;SDS011;50653;47.810;13.022;2023-09-12T03:33:29;2.73;;;2.63;;
14396;SDS011;50653;47.810;13.022;2023-09-12T03:35:55;2.50;;;2.40;;
14396;SDS011;50653;47.810;13.022;2023-09-12T03:38:21;3.10;;;3.00;;
14396;SDS011;50653;47.810;13.022;2023-09-12T03:40:47;2.93;;;2.83;;
14396;SDS011;50653;47.810;13.022;2023-09-12T03:43:12;2.70;;;2.60;;
14396;SDS011;50653;47.810;13.022;2023-09-12T03:45:38;3.03;;;2.93;;
14396;SDS011;50653;47.810;13.022;2023-09-12T03:48:04;4.50;;;4.27;;
14396;SDS011;50653;47.810;13.022;2023-09-12T03:50:30;4.50;;;4.30;;
14396;SDS011;50653;47.810;13.022;2023-09-12T03:52:56;4.00;;;3.87;;
14396;SDS011;50653;47.810;13.022;2023-09-12T03:55:21;3.40;;;3.30;;
14396;SDS011;50653;47.810;13.022;2023-09-12T03:57:47;3.07;;;2.97;;
14396;SDS011;50653;47.810;13.022;2023-09-12T04:00:13;4.30;;;4.10;;
14396;SDS011;50653;47.810;13.022;2023-09-12T04:02:42;5.20;;;4.90;;
14396;SDS011;50653;47.810;13.022;2023-09-12T04:05:08;4.53;;;4.33;;
14396;SDS011;50653;47.810;13.022;2023-09-12T04:07:34;4.60;;;4.40;;
14396;SDS011;50653;47.810;13.022;2023-09-12T04:10:00;4.87;;;4.60;;
14396;SDS011;50653;47.810;13.022;2023-09-12T04:12:25;3.57;;;3.47;;
14396;SDS011;50653;47.810;13.022;2023-09-12T04:14:52;4.87;;;4.47;;
14396;SDS011;50653;47.810;13.022;2023-09-12T04:17:19;3.60;;;3.40;;
14396;SDS011;50653;47.810;13.022;2023-09-12T04:19:44;3.40;;;3.30;;
14396;SDS011;50653;47.810;13.022;2023-09-12T04:22:10;4.40;;;4.20;;
14396;SDS011;50653;47.810;13.022;2023-09-12T04:24:36;2.80;;;2.70;;
14396;SDS011;50653;47.810;13.022;2023-09-12T04:27:01;3.13;;;3.03;;
14396;SDS011;50653;47.810;13.022;2023-09-12T04:29:28;2.90;;;2.80;;
14396;SDS011;50653;47.810;13.022;2023-09-12T04:31:54;3.47;;;3.37;;
14396;SDS011;50653;47.810;13.022;2023-09-12T04:34:25;4.70;;;4.50;;
14396;SDS011;50653;47.810;13.022;2023-09-12T04:36:51;4.37;;;4.07;;
14396;SDS011;50653;47.810;13.022;2023-09-12T04:39:17;4.83;;;4.63;;
14396;SDS011;50653;47.810;13.022;2023-09-12T04:41:43;5.07;;;4.87;;
14396;SDS011;50653;47.810;13.022;2023-09-12T04:44:09;3.63;;;3.50;;
14396;SDS011;50653;47.810;13.022;2023-09-12T04:46:35;3.77;;;3.57;;
14396;SDS011;50653;47.810;13.022;2023-09-12T04:49:01;3.60;;;3.40;;
14396;SDS011;50653;47.810;13.022;2023-09-12T04:51:27;4.10;;;3.90;;
14396;SDS011;50653;47.810;13.022;2023-09-12T04:53:52;2.80;;;2.60;;
14396;SDS011;50653;47.810;13.022;2023-09-12T04:56:18;2.87;;;2.77;;
14396;SDS011;50653;47.810;13.022;2023-09-12T04:58:44;3.07;;;2.97;;
14396;SDS011;50653;47.810;13.022;2023-09-12T05:01:10;2.20;;;2.10;;
14396;SDS011;50653;47.810;13.022;2023-09-12T05:03:36;2.63;;;2.53;;
14396;SDS011;50653;47.810;13.022;2023-09-12T05:06:02;3.47;;;3.30;;
14396;SDS011;50653;47.810;13.022;2023-09-12T05:08:29;3.70;;;3.40;;
14396;SDS011;50653;47.810;13.022;2023-09-12T05:10:54;3.30;;;3.10;;
14396;SDS011;50653;47.810;13.022;2023-09-12T05:13:20;3.00;;;2.90;;
14396;SDS011;50653;47.810;13.022;2023-09-12T05:15:46;3.40;;;3.20;;
14396;SDS011;50653;47.810;13.022;2023-09-12T05:18:12;3.07;;;2.97;;
14396;SDS011;50653;47.810;13.022;2023-09-12T05:20:38;2.90;;;2.80;;
14396;SDS011;50653;47.810;13.022;2023-09-12T05:23:04;2.93;;;2.80;;
14396;SDS011;50653;47.810;13.022;2023-09-12T05:25:29;2.93;;;2.83;;
14396;SDS011;50653;47.810;13.022;2023-09-12T05:27:55;4.20;;;4.00;;
14396;SDS011;50653;47.810;13.022;2023-09-12T05:30:22;3.50;;;3.30;;
14396;SDS011;50653;47.810;13.022;2023-09-12T05:32:47;2.83;;;2.73;;
14396;SDS011;50653;47.810;13.022;2023-09-12T05:35:13;2.80;;;2.70;;
14396;SDS011;50653;47.810;13.022;2023-09-12T05:37:39;3.90;;;3.70;;
14396;SDS011;50653;47.810;13.022;2023-09-12T05:40:05;4.17;;;3.97;;
14396;SDS011;50653;47.810;13.022;2023-09-12T05:42:31;3.73;;;3.53;;
14396;SDS011;50653;47.810;13.022;2023-09-12T05:44:57;3.50;;;3.30;;
14396;SDS011;50653;47.810;13.022;2023-09-12T05:47:23;4.00;;;3.80;;
14396;SDS011;50653;47.810;13.022;2023-09-12T05:49:49;3.90;;;3.70;;
14396;SDS011;50653;47.810;13.022;2023-09-12T05:52:15;5.20;;;5.00;;
14396;SDS011;50653;47.810;13.022;2023-09-12T05:54:41;4.10;;;3.90;;
14396;SDS011;50653;47.810;13.022;2023-09-12T05:57:07;3.80;;;3.63;;
14396;SDS011;50653;47.810;13.022;2023-09-12T05:59:35;3.10;;;2.90;;
14396;SDS011;50653;47.810;13.022;2023-09-12T06:02:03;3.10;;;3.00;;
14396;SDS011;50653;47.810;13.022;2023-09-12T06:04:30;5.00;;;4.77;;
14396;SDS011;50653;47.810;13.022;2023-09-12T06:06:55;4.60;;;4.27;;
14396;SDS011;50653;47.810;13.022;2023-09-12T06:09:21;3.80;;;3.60;;
14396;SDS011;50653;47.810;13.022;2023-09-12T06:11:46;4.13;;;3.93;;
14396;SDS011;50653;47.810;13.022;2023-09-12T06:14:12;4.20;;;4.00;;
14396;SDS011;50653;47.810;13.022;2023-09-12T06:16:38;5.07;;;4.77;;
14396;SDS011;50653;47.810;13.022;2023-09-12T06:19:03;4.40;;;4.20;;
14396;SDS011;50653;47.810;13.022;2023-09-12T06:21:29;4.77;;;4.57;;
14396;SDS011;50653;47.810;13.022;2023-09-12T06:24:08;4.03;;;3.83;;
14396;SDS011;50653;47.810;13.022;2023-09-12T06:26:34;4.60;;;4.30;;
14396;SDS011;50653;47.810;13.022;2023-09-12T06:29:00;4.60;;;4.40;;
14396;SDS011;50653;47.810;13.022;2023-09-12T06:31:26;3.90;;;3.70;;
14396;SDS011;50653;47.810;13.022;2023-09-12T06:33:51;4.50;;;4.30;;
14396;SDS011;50653;47.810;13.022;2023-09-12T06:36:17;3.77;;;3.67;;
14396;SDS011;50653;47.810;13.022;2023-09-12T06:38:42;5.00;;;4.80;;
14396;SDS011;50653;47.810;13.022;2023-09-12T06:41:08;4.57;;;4.37;;
14396;SDS011;50653;47.810;13.022;2023-09-12T06:43:34;4.40;;;4.20;;
14396;SDS011;50653;47.810;13.022;2023-09-12T06:45:59;4.90;;;4.70;;
14396;SDS011;50653;47.810;13.022;2023-09-12T06:48:25;5.30;;;5.07;;
14396;SDS011;50653;47.810;13.022;2023-09-12T06:50:50;6.07;;;5.67;;
14396;SDS011;50653;47.810;13.022;2023-09-12T06:53:17;4.60;;;4.40;;
14396;SDS011;50653;47.810;13.022;2023-09-12T06:55:42;4.63;;;4.43;;
14396;SDS011;50653;47.810;13.022;2023-09-12T06:58:08;5.53;;;5.33;;
14396;SDS011;50653;47.810;13.022;2023-09-12T07:00:33;6.30;;;6.00;;
14396;SDS011;50653;47.810;13.022;2023-09-12T07:02:59;6.80;;;6.43;;
14396;SDS011;50653;47.810;13.022;2023-09-12T07:05:25;5.60;;;5.40;;
14396;SDS011;50653;47.810;13.022;2023-09-12T07:07:52;6.50;;;6.17;;
14396;SDS011;50653;47.810;13.022;2023-09-12T07:10:17;5.07;;;4.87;;
14396;SDS011;50653;47.810;13.022;2023-09-12T07:12:43;4.73;;;4.53;;
14396;SDS011;50653;47.810;13.022;2023-09-12T07:15:09;6.77;;;6.37;;
14396;SDS011;50653;47.810;13.022;2023-09-12T07:17:35;5.87;;;5.57;;
14396;SDS011;50653;47.810;13.022;2023-09-12T07:20:00;7.50;;;7.13;;
14396;SDS011;50653;47.810;13.022;2023-09-12T07:22:26;7.27;;;6.80;;
14396;SDS011;50653;47.810;13.022;2023-09-12T07:24:52;7.27;;;6.87;;
14396;SDS011;50653;47.810;13.022;2023-09-12T07:27:19;7.20;;;6.80;;
14396;SDS011;50653;47.810;13.022;2023-09-12T07:29:44;7.33;;;6.93;;
14396;SDS011;50653;47.810;13.022;2023-09-12T07:32:10;6.80;;;6.50;;
14396;SDS011;50653;47.810;13.022;2023-09-12T07:34:35;7.30;;;6.80;;
14396;SDS011;50653;47.810;13.022;2023-09-12T07:37:03;6.63;;;6.33;;
14396;SDS011;50653;47.810;13.022;2023-09-12T07:39:28;5.23;;;5.03;;
14396;SDS011;50653;47.810;13.022;2023-09-12T07:41:54;5.50;;;5.30;;
14396;SDS011;50653;47.810;13.022;2023-09-12T07:44:20;4.67;;;4.47;;
14396;SDS011;50653;47.810;13.022;2023-09-12T07:46:46;5.10;;;4.90;;
14396;SDS011;50653;47.810;13.022;2023-09-12T07:49:11;5.40;;;5.20;;
14396;SDS011;50653;47.810;13.022;2023-09-12T07:51:37;5.67;;;5.47;;
14396;SDS011;50653;47.810;13.022;2023-09-12T07:54:03;5.57;;;5.37;;
14396;SDS011;50653;47.810;13.022;2023-09-12T07:56:28;6.33;;;6.13;;
14396;SDS011;50653;47.810;13.022;2023-09-12T07:58:54;4.80;;;4.60;;
14396;SDS011;50653;47.810;13.022;2023-09-12T08:01:21;5.47;;;5.27;;
14396;SDS011;50653;47.810;13.022;2023-09-12T08:03:47;6.20;;;5.80;;
14396;SDS011;50653;47.810;13.022;2023-09-12T08:06:12;5.70;;;5.30;;
14396;SDS011;50653;47.810;13.022;2023-09-12T08:08:38;6.37;;;6.07;;
14396;SDS011;50653;47.810;13.022;2023-09-12T08:11:04;5.20;;;4.90;;
14396;SDS011;50653;47.810;13.022;2023-09-12T08:13:30;6.27;;;5.90;;
14396;SDS011;50653;47.810;13.022;2023-09-12T08:15:56;5.33;;;5.13;;
14396;SDS011;50653;47.810;13.022;2023-09-12T08:18:25;5.67;;;5.37;;
14396;SDS011;50653;47.810;13.022;2023-09-12T08:20:53;6.27;;;5.97;;
14396;SDS011;50653;47.810;13.022;2023-09-12T08:23:18;5.30;;;5.10;;
14396;SDS011;50653;47.810;13.022;2023-09-12T08:25:44;6.30;;;6.00;;
14396;SDS011;50653;47.810;13.022;2023-09-12T08:28:09;5.00;;;4.80;;
14396;SDS011;50653;47.810;13.022;2023-09-12T08:30:35;4.83;;;4.63;;
14396;SDS011;50653;47.810;13.022;2023-09-12T08:33:01;4.47;;;4.27;;
14396;SDS011;50653;47.810;13.022;2023-09-12T08:35:29;5.00;;;4.80;;
14396;SDS011;50653;47.810;13.022;2023-09-12T08:37:54;5.73;;;5.43;;
14396;SDS011;50653;47.810;13.022;2023-09-12T08:40:20;6.10;;;5.90;;
14396;SDS011;50653;47.810;13.022;2023-09-12T08:42:46;5.37;;;5.07;;
14396;SDS011;50653;47.810;13.022;2023-09-12T08:45:14;5.43;;;5.20;;
14396;SDS011;50653;47.810;13.022;2023-09-12T08:47:41;6.43;;;5.80;;
14396;SDS011;50653;47.810;13.022;2023-09-12T08:50:12;5.83;;;5.43;;
14396;SDS011;50653;47.810;13.022;2023-09-12T08:52:39;5.80;;;5.50;;
14396;SDS011;50653;47.810;13.022;2023-09-12T08:55:07;4.00;;;3.90;;
14396;SDS011;50653;47.810;13.022;2023-09-12T08:57:33;4.53;;;4.33;;
14396;SDS011;50653;47.810;13.022;2023-09-12T09:00:03;4.50;;;4.27;;
14396;SDS011;50653;47.810;13.022;2023-09-12T09:02:34;5.40;;;4.53;;
14396;SDS011;50653;47.810;13.022;2023-09-12T09:05:04;5.20;;;5.00;;
14396;SDS011;50653;47.810;13.022;2023-09-12T09:07:35;4.23;;;4.00;;
14396;SDS011;50653;47.810;13.022;2023-09-12T09:10:03;4.07;;;3.87;;
14396;SDS011;50653;47.810;13.022;2023-09-12T09:12:32;3.17;;;2.97;;
14396;SDS011;50653;47.810;13.022;2023-09-12T09:14:59;3.20;;;3.00;;
14396;SDS011;50653;47.810;13.022;2023-09-12T09:17:45;3.20;;;3.10;;
14396;SDS011;50653;47.810;13.022;2023-09-12T09:20:21;3.20;;;3.00;;
14396;SDS011;50653;47.810;13.022;2023-09-12T09:22:58;2.90;;;2.80;;
14396;SDS011;50653;47.810;13.022;2023-09-12T09:25:33;4.00;;;3.90;;
14396;SDS011;50653;47.810;13.022;2023-09-12T09:28:15;4.47;;;4.27;;
14396;SDS011;50653;47.810;13.022;2023-09-12T09:30:44;3.53;;;3.43;;
14396;SDS011;50653;47.810;13.022;2023-09-12T09:33:11;3.33;;;3.23;;
14396;SDS011;50653;47.810;13.022;2023-09-12T09:35:38;3.93;;;3.73;;
14396;SDS011;50653;47.810;13.022;2023-09-12T09:38:06;3.40;;;3.20;;
14396;SDS011;50653;47.810;13.022;2023-09-12T09:40:33;4.10;;;3.90;;
14396;SDS011;50653;47.810;13.022;2023-09-12T09:43:00;2.93;;;2.83;;
14396;SDS011;50653;47.810;13.022;2023-09-12T09:45:27;3.20;;;3.10;;
14396;SDS011;50653;47.810;13.022;2023-09-12T09:47:57;4.17;;;3.97;;
14396;SDS011;50653;47.810;13.022;2023-09-12T09:50:24;4.37;;;4.20;;
14396;SDS011;50653;47.810;13.022;2023-09-12T09:52:55;5.30;;;5.10;;
14396;SDS011;50653;47.810;13.022;2023-09-12T09:55:22;4.10;;;3.90;;
14396;SDS011;50653;47.810;13.022;2023-09-12T09:57:48;4.63;;;4.43;;
14396;SDS011;50653;47.810;13.022;2023-09-12T10:00:17;5.33;;;5.13;;
14396;SDS011;50653;47.810;13.022;2023-09-12T10:02:44;3.83;;;3.63;;
14396;SDS011;50653;47.810;13.022;2023-09-12T10:05:11;4.37;;;4.17;;
14396;SDS011;50653;47.810;13.022;2023-09-12T10:07:39;4.07;;;3.87;;
14396;SDS011;50653;47.810;13.022;2023-09-12T10:10:06;9.47;;;8.83;;
14396;SDS011;50653;47.810;13.022;2023-09-12T10:12:35;9.10;;;8.60;;
14396;SDS011;50653;47.810;13.022;2023-09-12T10:15:01;6.40;;;6.10;;
14396;SDS011;50653;47.810;13.022;2023-09-12T10:17:35;8.50;;;8.00;;
14396;SDS011;50653;47.810;13.022;2023-09-12T10:20:03;7.43;;;6.87;;
14396;SDS011;50653;47.810;13.022;2023-09-12T10:22:37;7.87;;;7.50;;
14396;SDS011;50653;47.810;13.022;2023-09-12T10:25:06;10.27;;;9.67;;
14396;SDS011;50653;47.810;13.022;2023-09-12T10:27:33;8.10;;;7.70;;
14396;SDS011;50653;47.810;13.022;2023-09-12T10:29:59;8.53;;;7.93;;
14396;SDS011;50653;47.810;13.022;2023-09-12T10:32:27;8.70;;;8.30;;
14396;SDS011;50653;47.810;13.022;2023-09-12T10:34:55;7.80;;;7.40;;
14396;SDS011;50653;47.810;13.022;2023-09-12T10:37:24;6.40;;;6.10;;
14396;SDS011;50653;47.810;13.022;2023-09-12T10:39:54;5.83;;;5.53;;
14396;SDS011;50653;47.810;13.022;2023-09-12T10:42:22;6.00;;;5.77;;
14396;SDS011;50653;47.810;13.022;2023-09-12T10:44:51;4.60;;;4.40;;
14396;SDS011;50653;47.810;13.022;2023-09-12T10:47:19;5.23;;;5.03;;
14396;SDS011;50653;47.810;13.022;2023-09-12T10:49:45;6.10;;;5.80;;
14396;SDS011;50653;47.810;13.022;2023-09-12T10:52:11;6.03;;;5.83;;
14396;SDS011;50653;47.810;13.022;2023-09-12T10:54:49;6.33;;;6.00;;
14396;SDS011;50653;47.810;13.022;2023-09-12T10:57:15;6.13;;;5.93;;
14396;SDS011;50653;47.810;13.022;2023-09-12T11:02:30;6.70;;;6.40;;
14396;SDS011;50653;47.810;13.022;2023-09-12T11:05:07;5.77;;;5.47;;
14396;SDS011;50653;47.810;13.022;2023-09-12T11:08:01;4.83;;;4.53;;
14396;SDS011;50653;47.810;13.022;2023-09-12T11:10:29;4.23;;;4.03;;
14396;SDS011;50653;47.810;13.022;2023-09-12T11:12:57;3.77;;;3.67;;
14396;SDS011;50653;47.810;13.022;2023-09-12T11:15:23;4.20;;;4.10;;
14396;SDS011;50653;47.810;13.022;2023-09-12T11:18:00;4.87;;;4.60;;
14396;SDS011;50653;47.810;13.022;2023-09-12T11:20:48;5.80;;;5.50;;
14396;SDS011;50653;47.810;13.022;2023-09-12T11:23:18;5.27;;;5.07;;
14396;SDS011;50653;47.810;13.022;2023-09-12T11:25:44;5.30;;;5.10;;
14396;SDS011;50653;47.810;13.022;2023-09-12T11:28:10;6.03;;;5.73;;
14396;SDS011;50653;47.810;13.022;2023-09-12T11:30:36;4.80;;;4.60;;
14396;SDS011;50653;47.810;13.022;2023-09-12T11:33:05;4.10;;;4.00;;
14396;SDS011;50653;47.810;13.022;2023-09-12T11:35:38;5.20;;;5.00;;
14396;SDS011;50653;47.810;13.022;2023-09-12T11:38:09;7.13;;;6.73;;
14396;SDS011;50653;47.810;13.022;2023-09-12T11:43:02;10.10;;;4.60;;
14396;SDS011;50653;47.810;13.022;2023-09-12T11:45:28;6.33;;;6.03;;
14396;SDS011;50653;47.810;13.022;2023-09-12T11:47:54;8.20;;;7.80;;
14396;SDS011;50653;47.810;13.022;2023-09-12T11:50:32;10.50;;;9.70;;
14396;SDS011;50653;47.810;13.022;2023-09-12T11:53:07;8.63;;;8.13;;
14396;SDS011;50653;47.810;13.022;2023-09-12T11:55:34;6.10;;;5.83;;
14396;SDS011;50653;47.810;13.022;2023-09-12T11:58:11;7.20;;;6.70;;
14396;SDS011;50653;47.810;13.022;2023-09-12T12:00:44;6.70;;;6.37;;
14396;SDS011;50653;47.810;13.022;2023-09-12T12:03:18;6.77;;;6.47;;
14396;SDS011;50653;47.810;13.022;2023-09-12T12:05:46;6.27;;;6.07;;
14396;SDS011;50653;47.810;13.022;2023-09-12T12:08:12;7.53;;;6.83;;
14396;SDS011;50653;47.810;13.022;2023-09-12T12:10:39;5.40;;;5.00;;
14396;SDS011;50653;47.810;13.022;2023-09-12T12:13:06;6.50;;;6.17;;
14396;SDS011;50653;47.810;13.022;2023-09-12T12:15:42;8.53;;;8.07;;
14396;SDS011;50653;47.810;13.022;2023-09-12T12:18:07;6.13;;;5.83;;
14396;SDS011;50653;47.810;13.022;2023-09-12T12:20:33;5.97;;;5.67;;
14396;SDS011;50653;47.810;13.022;2023-09-12T12:22:59;6.37;;;6.07;;
14396;SDS011;50653;47.810;13.022;2023-09-12T12:25:25;7.37;;;7.07;;
14396;SDS011;50653;47.810;13.022;2023-09-12T12:27:50;7.90;;;7.50;;
14396;SDS011;50653;47.810;13.022;2023-09-12T12:30:17;8.40;;;8.00;;
14396;SDS011;50653;47.810;13.022;2023-09-12T12:32:44;8.20;;;7.77;;
14396;SDS011;50653;47.810;13.022;2023-09-12T12:35:20;8.90;;;8.33;;
14396;SDS011;50653;47.810;13.022;2023-09-12T12:37:50;8.93;;;8.43;;
14396;SDS011;50653;47.810;13.022;2023-09-12T12:40:19;7.40;;;7.10;;
14396;SDS011;50653;47.810;13.022;2023-09-12T12:42:45;8.53;;;7.97;;
14396;SDS011;50653;47.810;13.022;2023-09-12T12:45:23;9.50;;;9.00;;
14396;SDS011;50653;47.810;13.022;2023-09-12T12:47:59;9.43;;;8.93;;
14396;SDS011;50653;47.810;13.022;2023-09-12T12:50:26;8.27;;;7.77;;
14396;SDS011;50653;47.810;13.022;2023-09-12T12:52:52;7.03;;;6.73;;
14396;SDS011;50653;47.810;13.022;2023-09-12T12:55:19;6.67;;;6.17;;
14396;SDS011;50653;47.810;13.022;2023-09-12T12:57:47;5.70;;;5.40;;
14396;SDS011;50653;47.810;13.022;2023-09-12T13:00:14;7.17;;;6.87;;
14396;SDS011;50653;47.810;13.022;2023-09-12T13:02:42;7.73;;;7.40;;
14396;SDS011;50653;47.810;13.022;2023-09-12T13:05:21;7.30;;;6.90;;
14396;SDS011;50653;47.810;13.022;2023-09-12T13:07:54;7.50;;;7.10;;
14396;SDS011;50653;47.810;13.022;2023-09-12T13:10:20;7.27;;;6.97;;
14396;SDS011;50653;47.810;13.022;2023-09-12T13:12:47;7.20;;;6.73;;
14396;SDS011;50653;47.810;13.022;2023-09-12T13:15:14;5.87;;;5.63;;
14396;SDS011;50653;47.810;13.022;2023-09-12T13:17:41;5.87;;;5.47;;
14396;SDS011;50653;47.810;13.022;2023-09-12T13:20:07;6.30;;;5.73;;
14396;SDS011;50653;47.810;13.022;2023-09-12T13:22:33;5.20;;;5.00;;
14396;SDS011;50653;47.810;13.022;2023-09-12T13:25:00;6.20;;;5.73;;
14396;SDS011;50653;47.810;13.022;2023-09-12T13:27:25;6.43;;;6.23;;
14396;SDS011;50653;47.810;13.022;2023-09-12T13:29:51;7.20;;;6.80;;
14396;SDS011;50653;47.810;13.022;2023-09-12T13:32:17;7.63;;;7.33;;
14396;SDS011;50653;47.810;13.022;2023-09-12T13:34:43;6.97;;;6.67;;
14396;SDS011;50653;47.810;13.022;2023-09-12T13:37:12;5.53;;;5.23;;
14396;SDS011;50653;47.810;13.022;2023-09-12T13:39:38;4.43;;;4.23;;
14396;SDS011;50653;47.810;13.022;2023-09-12T13:42:05;6.00;;;5.70;;
14396;SDS011;50653;47.810;13.022;2023-09-12T13:44:33;9.40;;;8.57;;
14396;SDS011;50653;47.810;13.022;2023-09-12T13:46:59;6.60;;;6.30;;
14396;SDS011;50653;47.810;13.022;2023-09-12T13:49:24;6.10;;;5.90;;
14396;SDS011;50653;47.810;13.022;2023-09-12T13:51:50;4.73;;;4.53;;
14396;SDS011;50653;47.810;13.022;2023-09-12T13:54:16;4.67;;;4.47;;
14396;SDS011;50653;47.810;13.022;2023-09-12T13:56:41;4.80;;;4.60;;
14396;SDS011;50653;47.810;13.022;2023-09-12T13:59:07;4.00;;;3.80;;
14396;SDS011;50653;47.810;13.022;2023-09-12T14:01:33;5.37;;;5.17;;
14396;SDS011;50653;47.810;13.022;2023-09-12T14:03:59;6.47;;;6.17;;
14396;SDS011;50653;47.810;13.022;2023-09-12T14:06:24;6.30;;;6.10;;
14396;SDS011;50653;47.810;13.022;2023-09-12T14:08:51;5.30;;;5.10;;
14396;SDS011;50653;47.810;13.022;2023-09-12T14:11:17;4.83;;;4.63;;
14396;SDS011;50653;47.810;13.022;2023-09-12T14:13:43;6.50;;;6.20;;
14396;SDS011;50653;47.810;13.022;2023-09-12T14:16:08;5.90;;;5.63;;
14396;SDS011;50653;47.810;13.022;2023-09-12T14:18:34;5.90;;;5.50;;
14396;SDS011;50653;47.810;13.022;2023-09-12T14:21:00;6.43;;;5.90;;
14396;SDS011;50653;47.810;13.022;2023-09-12T14:23:25;7.00;;;6.60;;
14396;SDS011;50653;47.810;13.022;2023-09-12T14:25:51;6.60;;;6.30;;
14396;SDS011;50653;47.810;13.022;2023-09-12T14:28:17;5.00;;;4.77;;
14396;SDS011;50653;47.810;13.022;2023-09-12T14:30:43;6.20;;;6.00;;
14396;SDS011;50653;47.810;13.022;2023-09-12T14:33:13;6.70;;;6.40;;
14396;SDS011;50653;47.810;13.022;2023-09-12T14:35:39;6.20;;;5.90;;
14396;SDS011;50653;47.810;13.022;2023-09-12T14:38:06;7.07;;;6.67;;
14396;SDS011;50653;47.810;13.022;2023-09-12T14:40:32;5.40;;;5.00;;
14396;SDS011;50653;47.810;13.022;2023-09-12T14:42:58;4.73;;;4.53;;
14396;SDS011;50653;47.810;13.022;2023-09-12T14:45:23;5.27;;;4.97;;